Time;durP1;ratioP1;P1;durP2;ratioP2;P2;SDS_P1;SDS_P2;PMS_P1;PMS_P2;Temp;Humidity;BMP_temperature;BMP_pressure;BME280_temperature;BME280_humidity;BME280_pressure;Samples;Min_cycle;Max_cycle;Signal;HPM_P1;HPM_P2
2021/12/20 00:01:33;;;;;;;17.70;3.53;;;;;;;1.83;100.00;101118.19;5034643;28;20116;-70
2021/12/20 00:03:59;;;;;;;26.85;4.40;;;;;;;1.79;100.00;101121.63;5035072;28;20036;-70
2021/12/20 00:06:24;;;;;;;23.58;4.63;;;;;;;1.74;100.00;101121.53;5035160;28;20021;-70
2021/12/20 00:08:49;;;;;;;32.40;5.43;;;;;;;1.66;100.00;101129.28;5035046;28;20504;-70
2021/12/20 00:11:14;;;;;;;30.95;4.72;;;;;;;1.74;100.00;101125.91;5034866;28;20025;-71
2021/12/20 00:13:40;;;;;;;29.92;4.60;;;;;;;1.80;100.00;101131.31;5033653;28;20478;-71
2021/12/20 00:16:05;;;;;;;25.27;4.80;;;;;;;1.95;100.00;101124.56;5035151;28;20021;-72
2021/12/20 00:18:30;;;;;;;36.13;5.13;;;;;;;2.04;100.00;101119.44;5034966;28;20025;-72
2021/12/20 00:20:56;;;;;;;25.90;4.90;;;;;;;2.09;100.00;101128.31;5033644;28;20029;-72
2021/12/20 00:23:21;;;;;;;36.88;5.55;;;;;;;2.15;100.00;101131.94;5035013;28;20025;-71
2021/12/20 00:25:48;;;;;;;33.13;5.32;;;;;;;2.17;100.00;101125.84;5033419;28;20036;-72
2021/12/20 00:28:17;;;;;;;43.17;6.22;;;;;;;2.27;100.00;101129.53;5033392;28;20029;-72
2021/12/20 00:30:43;;;;;;;35.03;5.13;;;;;;;2.31;100.00;101134.00;5034643;28;20481;-71
2021/12/20 00:33:09;;;;;;;29.88;4.50;;;;;;;2.34;100.00;101139.34;5033187;28;20034;-71
2021/12/20 00:35:34;;;;;;;31.48;5.63;;;;;;;2.34;100.00;101133.19;5033205;28;20029;-71
2021/12/20 00:40:43;;;;;;;34.10;4.82;;;;;;;2.39;100.00;101131.50;5034528;28;20028;-71
2021/12/20 00:43:09;;;;;;;25.63;4.43;;;;;;;2.35;100.00;101134.94;5034317;28;20104;-72
2021/12/20 00:45:36;;;;;;;36.40;5.78;;;;;;;2.36;100.00;101141.09;5034288;28;20478;-72
2021/12/20 00:48:06;;;;;;;34.63;5.47;;;;;;;2.19;100.00;101139.06;5034233;28;20029;-71
2021/12/20 00:50:31;;;;;;;32.05;4.90;;;;;;;2.11;100.00;101138.91;5034123;28;20040;-72
2021/12/20 00:52:57;;;;;;;28.33;3.90;;;;;;;2.11;100.00;101147.69;5034045;28;20509;-71
2021/12/20 00:55:25;;;;;;;26.80;4.10;;;;;;;2.21;100.00;101147.88;5034527;28;20025;-71
2021/12/20 00:57:53;;;;;;;22.52;3.92;;;;;;;2.21;100.00;101138.22;5034106;28;20026;-71
2021/12/20 01:00:21;;;;;;;33.97;5.40;;;;;;;2.26;100.00;101148.84;5033952;28;20120;-71
2021/12/20 01:02:47;;;;;;;33.50;4.63;;;;;;;2.29;100.00;101148.91;5034204;28;20017;-71
2021/12/20 01:05:13;;;;;;;30.50;4.57;;;;;;;2.36;100.00;101151.66;5033929;28;20079;-71
2021/12/20 01:07:38;;;;;;;29.77;4.28;;;;;;;2.36;100.00;101146.38;5033864;28;20021;-71
2021/12/20 01:10:07;;;;;;;28.52;4.53;;;;;;;2.33;100.00;101148.09;5033728;28;20029;-71
2021/12/20 01:12:44;;;;;;;27.63;4.30;;;;;;;2.28;100.00;101151.50;5032446;28;20025;-71
2021/12/20 01:15:13;;;;;;;37.60;5.18;;;;;;;2.29;100.00;101151.56;5033787;28;20109;-72
2021/12/20 01:17:38;;;;;;;34.42;5.03;;;;;;;2.29;100.00;101156.81;5033722;28;20022;-71
2021/12/20 01:20:06;;;;;;;32.33;5.00;;;;;;;2.30;100.00;101148.03;5033599;28;20036;-72
2021/12/20 01:22:31;;;;;;;30.20;4.07;;;;;;;2.26;100.00;101150.59;5033609;28;20402;-71
2021/12/20 01:24:57;;;;;;;23.63;4.10;;;;;;;2.24;100.00;101145.31;5033819;28;20031;-71
2021/12/20 01:27:22;;;;;;;27.52;4.43;;;;;;;2.20;100.00;101151.38;5032281;28;20025;-71
2021/12/20 01:29:47;;;;;;;20.38;3.65;;;;;;;2.15;100.00;101153.91;5033394;28;20109;-72
2021/12/20 01:32:13;;;;;;;28.45;4.22;;;;;;;2.07;100.00;101151.13;5033671;28;20026;-71
2021/12/20 01:34:38;;;;;;;24.20;4.13;;;;;;;2.04;100.00;101165.97;5033937;28;20021;-71
2021/12/20 01:37:04;;;;;;;22.48;4.03;;;;;;;1.99;100.00;101168.53;5033428;28;20025;-71
2021/12/20 01:39:29;;;;;;;22.50;4.75;;;;;;;1.95;100.00;101164.06;5032957;28;20025;-71
2021/12/20 01:41:54;;;;;;;21.27;3.83;;;;;;;1.93;100.00;101157.88;5033846;28;20025;-71
2021/12/20 01:44:21;;;;;;;25.98;4.82;;;;;;;1.85;100.00;101161.25;5033273;28;20108;-71
2021/12/20 01:46:46;;;;;;;19.23;4.07;;;;;;;1.78;100.00;101168.13;5033283;28;20535;-71
2021/12/20 01:49:15;;;;;;;24.77;5.35;;;;;;;1.71;100.00;101160.06;5033166;28;20025;-71
2021/12/20 01:54:25;;;;;;;25.35;4.80;;;;;;;1.61;100.00;101173.06;5033529;28;20029;-71
2021/12/20 01:56:51;;;;;;;30.67;5.20;;;;;;;1.55;100.00;101172.91;5033144;28;20027;-71
2021/12/20 01:59:17;;;;;;;19.13;4.20;;;;;;;1.49;100.00;101170.16;5032946;28;20112;-72
2021/12/20 02:01:44;;;;;;;33.08;5.28;;;;;;;1.42;100.00;101175.28;5033453;28;20100;-71
2021/12/20 02:04:10;;;;;;;24.15;4.43;;;;;;;1.36;100.00;101175.16;5033060;28;20025;-72
2021/12/20 02:06:39;;;;;;;20.60;4.28;;;;;;;1.31;100.00;101174.16;5033056;28;20025;-71
2021/12/20 02:09:08;;;;;;;20.77;3.95;;;;;;;1.27;100.00;101181.06;5033160;28;20032;-72
2021/12/20 02:11:34;;;;;;;31.70;6.07;;;;;;;1.25;100.00;101180.16;5032953;28;20045;-71
2021/12/20 02:13:59;;;;;;;25.50;5.32;;;;;;;1.19;100.00;101183.53;5033005;28;20036;-71
2021/12/20 02:16:25;;;;;;;32.10;5.20;;;;;;;1.21;100.00;101188.84;5032936;28;20393;-71
2021/12/20 02:18:50;;;;;;;28.80;5.72;;;;;;;1.26;100.00;101191.59;5031662;28;20025;-71
2021/12/20 02:21:16;;;;;;;42.25;6.90;;;;;;;1.13;100.00;101185.13;5032922;28;20017;-71
2021/12/20 02:23:41;;;;;;;36.42;5.80;;;;;;;1.14;100.00;101193.06;5032936;28;20151;-71
2021/12/20 02:26:07;;;;;;;34.25;6.40;;;;;;;1.14;100.00;101187.78;5033133;28;20067;-71
2021/12/20 02:28:39;;;;;;;28.27;5.88;;;;;;;0.75;100.00;101189.47;5032789;28;20080;-72
2021/12/20 02:38:55;;;;;;;37.25;7.15;;;;;;;0.75;100.00;101166.72;5033025;28;20022;-71
2021/12/20 02:41:30;;;;;;;47.15;8.15;;;;;;;0.77;100.00;101175.53;5033026;28;20067;-71
2021/12/20 02:44:03;;;;;;;45.47;7.80;;;;;;;0.59;100.00;101170.72;5031501;28;20074;-71
2021/12/20 02:46:48;;;;;;;43.33;8.50;;;;;;;0.53;100.00;101166.19;5033048;28;20108;-71
2021/12/20 02:49:20;;;;;;;48.78;8.27;;;;;;;0.61;100.00;101166.38;5031734;28;20029;-71
2021/12/20 02:51:47;;;;;;;50.00;9.75;;;;;;;0.57;100.00;101163.63;5035537;28;20029;-71
2021/12/20 02:54:13;;;;;;;45.58;8.20;;;;;;;0.62;100.00;101159.38;5036625;28;20036;-71
2021/12/20 02:56:40;;;;;;;43.40;7.90;;;;;;;0.52;100.00;101158.25;5036330;28;20025;-71
2021/12/20 02:59:06;;;;;;;46.38;9.55;;;;;;;0.38;100.00;101150.00;5036145;28;20030;-71
2021/12/20 03:01:32;;;;;;;43.10;8.38;;;;;;;0.35;100.00;101144.66;5036263;28;20026;-71
2021/12/20 03:03:59;;;;;;;51.63;9.98;;;;;;;0.42;100.00;101146.59;5036290;28;20025;-71
2021/12/20 03:06:36;;;;;;;46.00;9.60;;;;;;;0.41;100.00;101150.09;5036212;28;20025;-71
2021/12/20 03:09:04;;;;;;;46.33;9.25;;;;;;;0.32;100.00;101146.38;5036636;28;20029;-71
2021/12/20 03:11:29;;;;;;;47.05;9.15;;;;;;;0.41;100.00;101147.47;5034760;28;20075;-71
2021/12/20 03:14:07;;;;;;;55.50;9.82;;;;;;;0.41;100.00;101145.72;5035979;28;20026;-71
2021/12/20 03:16:34;;;;;;;57.08;10.18;;;;;;;0.48;100.00;101153.78;5034780;28;20405;-71
2021/12/20 03:19:00;;;;;;;56.67;10.13;;;;;;;0.49;100.00;101156.41;5035851;28;20033;-72
2021/12/20 03:21:25;;;;;;;41.78;9.18;;;;;;;0.45;100.00;101154.56;5035874;28;20025;-71
2021/12/20 03:23:50;;;;;;;63.88;12.57;;;;;;;0.43;100.00;101149.28;5036352;28;20026;-71
2021/12/20 03:26:16;;;;;;;41.42;9.48;;;;;;;0.28;100.00;101151.50;5036053;28;20466;-71
2021/12/20 03:28:41;;;;;;;47.03;10.75;;;;;;;0.36;100.00;101157.84;5035893;28;20025;-71
2021/12/20 03:31:06;;;;;;;45.65;9.52;;;;;;;0.35;100.00;101155.19;5035610;28;20112;-71
2021/12/20 03:33:32;;;;;;;33.83;8.10;;;;;;;0.29;100.00;101154.16;5035704;28;20022;-71
2021/12/20 03:35:57;;;;;;;44.97;8.63;;;;;;;0.24;100.00;101150.53;5035881;28;20099;-71
2021/12/20 03:38:22;;;;;;;32.42;7.15;;;;;;;0.19;100.00;101162.66;5035756;28;20052;-71
2021/12/20 03:40:48;;;;;;;34.45;8.05;;;;;;;0.12;100.00;101171.22;5035825;28;20017;-71
2021/12/20 03:43:13;;;;;;;32.92;7.63;;;;;;;0.13;100.00;101167.75;5035476;28;20032;-71
2021/12/20 03:45:40;;;;;;;32.40;7.07;;;;;;;0.17;100.00;101166.97;5035685;28;20036;-71
2021/12/20 03:48:06;;;;;;;31.10;7.72;;;;;;;0.19;100.00;101168.81;5035675;28;20025;-71
2021/12/20 03:50:31;;;;;;;35.85;8.77;;;;;;;0.22;100.00;101174.16;5035285;28;20036;-71
2021/12/20 03:52:56;;;;;;;30.95;7.53;;;;;;;0.27;100.00;101182.16;5035349;28;20036;-71
2021/12/20 03:55:22;;;;;;;36.33;8.15;;;;;;;0.32;100.00;101183.16;5035311;28;20029;-71
2021/12/20 03:57:47;;;;;;;37.90;9.20;;;;;;;0.37;100.00;101177.13;5035195;28;20503;-71
2021/12/20 04:00:14;;;;;;;38.05;8.73;;;;;;;0.43;100.00;101178.19;5035053;28;20033;-71
2021/12/20 04:02:44;;;;;;;39.33;8.93;;;;;;;0.50;100.00;101173.97;5034816;28;20100;-71
2021/12/20 04:05:11;;;;;;;45.83;10.07;;;;;;;0.57;100.00;101177.66;5035174;28;20080;-71
2021/12/20 04:07:36;;;;;;;67.22;12.25;;;;;;;0.58;100.00;101181.16;5035033;28;20504;-71
2021/12/20 04:10:03;;;;;;;62.22;12.77;;;;;;;0.63;100.00;101184.81;5034910;28;20021;-71
2021/12/20 04:12:28;;;;;;;54.50;11.73;;;;;;;0.63;100.00;101190.06;5034763;28;20532;-71
2021/12/20 04:14:53;;;;;;;46.42;11.60;;;;;;;0.57;100.00;101179.41;5034885;28;20025;-71
2021/12/20 04:17:19;;;;;;;72.28;12.25;;;;;;;0.49;100.00;101182.69;5034875;28;20116;-71
2021/12/20 04:19:44;;;;;;;47.60;10.70;;;;;;;0.57;100.00;101189.94;5034841;28;20079;-71
2021/12/20 04:22:09;;;;;;;59.35;11.40;;;;;;;0.60;100.00;101189.97;5034754;28;20017;-72
2021/12/20 04:24:35;;;;;;;48.17;11.98;;;;;;;0.58;100.00;101186.44;5035024;28;20036;-72
2021/12/20 04:27:00;;;;;;;49.92;11.65;;;;;;;0.58;100.00;101187.31;5033499;28;20076;-71
2021/12/20 04:29:28;;;;;;;87.43;12.90;;;;;;;0.36;100.00;101192.00;5034650;28;20032;-71
2021/12/20 04:31:53;;;;;;;76.07;11.80;;;;;;;0.24;100.00;101189.94;5033312;28;20057;-72
2021/12/20 04:34:19;;;;;;;41.85;10.77;;;;;;;0.31;100.00;101183.13;5034496;28;20033;-72
2021/12/20 04:36:44;;;;;;;72.78;12.70;;;;;;;0.26;100.00;101180.34;5034820;28;20075;-71
2021/12/20 04:39:14;;;;;;;103.22;12.80;;;;;;;0.29;100.00;101180.44;5034363;28;20025;-71
2021/12/20 04:41:39;;;;;;;109.40;12.10;;;;;;;0.09;100.00;101178.16;5034402;28;20079;-71
2021/12/20 04:44:05;;;;;;;56.40;11.40;;;;;;;0.22;100.00;101184.66;5033083;28;20448;-71
2021/12/20 04:46:31;;;;;;;203.95;18.55;;;;;;;0.22;100.00;101176.78;5034310;28;20112;-71
2021/12/20 04:48:56;;;;;;;65.10;13.02;;;;;;;0.19;100.00;101184.56;5034348;28;20026;-71
2021/12/20 04:51:21;;;;;;;62.20;12.60;;;;;;;0.24;100.00;101181.16;5034133;28;20025;-72
2021/12/20 04:53:47;;;;;;;147.80;15.40;;;;;;;0.21;100.00;101189.84;5034175;28;20032;-72
2021/12/20 04:56:12;;;;;;;124.10;13.45;;;;;;;0.11;100.00;101186.09;5034073;28;20021;-71
2021/12/20 04:58:37;;;;;;;47.42;12.07;;;;;;;0.21;100.00;101190.75;5033986;28;20504;-72
2021/12/20 05:01:03;;;;;;;55.80;12.90;;;;;;;0.27;100.00;101187.41;5033909;28;20486;-71
2021/12/20 05:03:28;;;;;;;79.97;13.77;;;;;;;0.23;100.00;101185.56;5033961;28;20017;-72
2021/12/20 05:05:53;;;;;;;59.20;11.43;;;;;;;0.26;100.00;101185.59;5033886;28;20475;-73
2021/12/20 05:08:19;;;;;;;48.78;12.20;;;;;;;0.33;100.00;101191.94;5033865;28;20030;-72
2021/12/20 05:10:45;;;;;;;40.58;11.98;;;;;;;0.33;100.00;101203.34;5032623;28;20036;-71
2021/12/20 05:13:12;;;;;;;40.15;11.80;;;;;;;0.35;100.00;101189.34;5033088;28;20026;-71
2021/12/20 05:15:39;;;;;;;29.73;9.60;;;;;;;0.39;100.00;101192.09;5033770;28;20021;-72
2021/12/20 05:18:07;;;;;;;28.02;10.45;;;;;;;0.42;100.00;101191.28;5034014;28;20026;-72
2021/12/20 05:20:33;;;;;;;36.10;10.77;;;;;;;0.43;100.00;101185.19;5032351;28;20505;-72
2021/12/20 05:22:59;;;;;;;26.15;9.85;;;;;;;0.60;100.00;101195.25;5033668;28;20029;-71
2021/12/20 05:25:26;;;;;;;130.73;14.93;;;;;;;0.38;100.00;101195.59;5033897;28;20123;-72
2021/12/20 05:27:52;;;;;;;98.47;13.70;;;;;;;0.38;100.00;101197.31;5033468;28;20030;-72
2021/12/20 05:30:18;;;;;;;170.90;19.15;;;;;;;0.30;100.00;101192.75;5032208;28;20095;-71
2021/12/20 05:32:44;;;;;;;121.28;17.50;;;;;;;0.30;100.00;101199.72;5032191;28;20021;-72
2021/12/20 05:35:12;;;;;;;270.25;20.27;;;;;;;0.05;100.00;101201.69;5033395;28;20029;-72
2021/12/20 05:37:38;;;;;;;140.77;13.65;;;;;;;0.09;100.00;101208.78;5033767;28;20079;-72
2021/12/20 05:40:05;;;;;;;21.80;8.60;;;;;;;0.15;100.00;101208.97;5033299;28;20416;-72
2021/12/20 05:42:31;;;;;;;201.20;16.45;;;;;;;0.01;100.00;101211.19;5033249;28;20064;-72
2021/12/20 05:44:56;;;;;;;213.57;18.67;;;;;;;-0.09;100.00;101214.41;5033329;28;20056;-72
2021/12/20 05:47:24;;;;;;;204.90;15.98;;;;;;;-0.12;100.00;101212.56;5033731;28;20025;-72
2021/12/20 05:49:51;;;;;;;90.63;10.70;;;;;;;-0.15;100.00;101231.75;5033231;28;20040;-73
2021/12/20 05:52:17;;;;;;;135.07;12.27;;;;;;;-0.14;100.00;101230.03;5033073;28;20029;-72
2021/12/20 05:54:42;;;;;;;188.65;15.07;;;;;;;-0.21;100.00;101230.69;5033499;28;20021;-71
2021/12/20 05:57:07;;;;;;;221.10;16.08;;;;;;;-0.28;100.00;101233.13;5031832;28;20091;-73
2021/12/20 05:59:33;;;;;;;209.65;16.70;;;;;;;-0.23;100.00;101228.00;5054302;23;20067;-89
2021/12/20 06:02:00;;;;;;;220.48;17.08;;;;;;;-0.33;100.00;101233.84;5034974;28;20029;-86
2021/12/20 06:04:29;;;;;;;82.68;9.18;;;;;;;-0.18;100.00;101231.66;5033124;28;20036;-87
2021/12/20 06:06:54;;;;;;;139.45;12.40;;;;;;;-0.28;100.00;101238.38;5036459;28;20410;-88
2021/12/20 06:09:29;;;;;;;45.15;7.30;;;;;;;-0.31;100.00;101242.66;5035482;28;20026;-87
2021/12/20 06:11:59;;;;;;;125.80;11.90;;;;;;;-0.38;100.00;101246.81;5037903;28;20021;-85
2021/12/20 06:14:28;;;;;;;110.03;11.50;;;;;;;-0.44;100.00;101244.91;5034822;28;20049;-85
2021/12/20 06:16:55;;;;;;;56.70;9.25;;;;;;;-0.41;100.00;101244.97;5034333;28;20021;-85
2021/12/20 06:19:24;;;;;;;67.40;8.38;;;;;;;-0.45;100.00;101240.50;5034087;28;20021;-85
2021/12/20 06:21:50;;;;;;;79.13;9.18;;;;;;;-0.52;100.00;101249.91;5034245;28;20025;-87
2021/12/20 06:24:16;;;;;;;58.20;8.55;;;;;;;-0.64;100.00;101258.25;5046772;28;20029;-86
2021/12/20 06:26:41;;;;;;;17.40;6.85;;;;;;;-0.49;100.00;101257.00;5045012;28;20084;-84
2021/12/20 06:29:07;;;;;;;59.55;9.50;;;;;;;-0.62;100.00;101258.34;5039815;28;20028;-84
2021/12/20 06:31:32;;;;;;;48.67;8.85;;;;;;;-0.59;100.00;101255.78;5042621;28;20044;-84
2021/12/20 06:33:57;;;;;;;20.15;6.93;;;;;;;-0.53;100.00;101265.59;5039808;28;20081;-85
2021/12/20 06:36:25;;;;;;;31.77;7.82;;;;;;;-0.47;100.00;101261.44;5040128;28;20021;-86
2021/12/20 06:38:53;;;;;;;99.93;11.55;;;;;;;-0.66;100.00;101265.19;5040828;28;20051;-85
2021/12/20 06:41:18;;;;;;;80.45;10.00;;;;;;;-0.66;100.00;101267.81;5039865;28;20033;-84
2021/12/20 06:43:44;;;;;;;51.78;8.43;;;;;;;-0.59;100.00;101272.41;5053616;28;20017;-86
2021/12/20 06:46:09;;;;;;;104.43;10.65;;;;;;;-0.54;100.00;101274.31;5040047;28;20026;-87
2021/12/20 06:48:34;;;;;;;69.03;10.27;;;;;;;-0.64;100.00;101271.38;5039053;28;20505;-87
2021/12/20 06:51:00;;;;;;;59.42;9.65;;;;;;;-0.63;100.00;101281.06;5039593;28;20039;-87
2021/12/20 06:53:25;;;;;;;129.02;11.77;;;;;;;-0.67;100.00;101273.94;5040548;28;20082;-86
2021/12/20 06:55:51;;;;;;;42.58;7.47;;;;;;;-0.70;100.00;101277.34;5040040;28;20037;-86
2021/12/20 06:58:16;;;;;;;58.75;8.68;;;;;;;-0.70;100.00;101279.97;5039811;28;20111;-88
2021/12/20 07:00:42;;;;;;;40.92;7.53;;;;;;;-0.64;100.00;101274.00;5040058;28;20405;-87
2021/12/20 07:03:07;;;;;;;99.70;12.15;;;;;;;-0.71;100.00;101275.56;5038037;28;20072;-87
2021/12/20 07:05:33;;;;;;;86.47;11.70;;;;;;;-0.69;100.00;101280.84;5038745;28;20522;-89
2021/12/20 07:07:58;;;;;;;21.05;7.30;;;;;;;-0.65;100.00;101280.13;5038915;28;20029;-89
2021/12/20 07:10:23;;;;;;;78.93;10.75;;;;;;;-0.69;100.00;101275.59;5037511;28;20053;-89
2021/12/20 07:12:52;;;;;;;46.03;9.43;;;;;;;-0.64;100.00;101280.97;5038866;28;20029;-88
2021/12/20 07:15:18;;;;;;;56.92;11.18;;;;;;;-0.62;100.00;101284.56;5039075;28;20108;-89
2021/12/20 07:17:44;;;;;;;67.13;12.10;;;;;;;-0.64;100.00;101284.50;5039398;28;20057;-88
2021/12/20 07:20:10;;;;;;;33.10;9.25;;;;;;;-0.66;100.00;101286.19;5046088;28;20017;-90
2021/12/20 07:22:36;;;;;;;100.57;13.63;;;;;;;-0.71;100.00;101290.38;5044093;28;20021;-90
2021/12/20 07:25:03;;;;;;;122.72;11.90;;;;;;;-0.71;100.00;101293.00;5039849;28;20021;-89
2021/12/20 07:27:30;;;;;;;172.30;13.48;;;;;;;-1.06;100.00;101299.78;5038833;28;20474;-89
2021/12/20 07:29:56;;;;;;;173.32;12.65;;;;;;;-1.13;100.00;101295.13;5037516;28;20033;-89
2021/12/20 07:32:21;;;;;;;160.13;13.15;;;;;;;-1.21;100.00;101296.63;5038958;28;20029;-89
2021/12/20 07:34:47;;;;;;;282.27;20.65;;;;;;;-1.17;100.00;101303.72;5036777;28;20030;-88
2021/12/20 07:37:12;;;;;;;57.55;8.95;;;;;;;-1.11;100.00;101310.94;5035869;28;20047;-89
2021/12/20 07:39:37;;;;;;;47.72;9.07;;;;;;;-1.08;100.00;101313.66;5036125;28;20021;-87
2021/12/20 07:42:03;;;;;;;22.90;8.00;;;;;;;-1.05;100.00;101303.25;5037935;28;20027;-87
2021/12/20 07:44:29;;;;;;;155.80;14.10;;;;;;;-1.11;100.00;101303.97;5035889;28;20025;-87
2021/12/20 07:46:54;;;;;;;233.38;20.75;;;;;;;-1.29;100.00;101299.81;5036455;28;20109;-87
2021/12/20 07:49:20;;;;;;;53.90;8.38;;;;;;;-1.22;100.00;101305.28;5038042;28;20056;-87
2021/12/20 07:51:46;;;;;;;103.00;10.23;;;;;;;-1.19;100.00;101301.06;5037750;28;20501;-87
2021/12/20 07:54:25;;;;;;;331.77;23.00;;;;;;;-1.47;100.00;101303.56;5038551;28;20052;-87
2021/12/20 08:04:06;;;;;;;61.25;8.20;;;;;;;-1.46;100.00;101300.13;4993257;28;20048;-87
2021/12/20 08:07:26;;;;;;;344.02;21.83;;;;;;;-1.88;100.00;101310.81;4978284;28;20109;-87
2021/12/20 08:09:52;;;;;;;107.47;10.52;;;;;;;-1.74;100.00;101317.47;4999357;22;20038;-76
2021/12/20 08:12:18;;;;;;;346.13;22.67;;;;;;;-1.79;100.00;101319.00;5035424;28;20492;-76
2021/12/20 08:14:43;;;;;;;131.13;11.52;;;;;;;-1.87;100.00;101320.44;5035391;28;20033;-76
2021/12/20 08:17:09;;;;;;;27.17;5.95;;;;;;;-1.77;100.00;101322.56;5035466;28;20493;-76
2021/12/20 08:19:34;;;;;;;161.43;13.55;;;;;;;-1.73;100.00;101324.50;5034913;28;20063;-77
2021/12/20 08:21:59;;;;;;;186.77;13.93;;;;;;;-1.78;100.00;101323.41;5035309;28;20017;-76
2021/12/20 08:24:24;;;;;;;68.97;8.35;;;;;;;-1.65;100.00;101326.50;5035358;28;20429;-76
2021/12/20 08:26:50;;;;;;;41.47;7.18;;;;;;;-1.80;100.00;101327.69;5035324;28;20021;-76
2021/12/20 08:29:15;;;;;;;97.80;9.63;;;;;;;-1.62;100.00;101332.72;5035004;28;20441;-76
2021/12/20 08:31:40;;;;;;;134.40;11.13;;;;;;;-1.74;100.00;101325.31;5034983;28;20025;-76
2021/12/20 08:34:06;;;;;;;76.25;9.43;;;;;;;-1.72;100.00;101339.34;5038791;28;20049;-76
2021/12/20 08:36:31;;;;;;;192.73;18.10;;;;;;;-1.61;100.00;101338.88;5034998;28;20072;-76
2021/12/20 08:38:57;;;;;;;183.30;16.20;;;;;;;-1.63;100.00;101335.31;5034993;28;20063;-76
2021/12/20 08:41:22;;;;;;;132.52;13.15;;;;;;;-1.59;100.00;101350.28;5034989;28;20029;-76
2021/12/20 08:43:48;;;;;;;438.98;31.65;;;;;;;-1.79;100.00;101347.81;5033375;28;20056;-76
2021/12/20 08:46:15;;;;;;;109.32;10.73;;;;;;;-1.55;100.00;101349.59;5034748;28;20021;-76
2021/12/20 08:48:41;;;;;;;281.95;19.23;;;;;;;-1.76;100.00;101344.41;5033452;28;20070;-76
2021/12/20 08:51:07;;;;;;;392.80;26.77;;;;;;;-1.91;100.00;101345.63;5034573;28;20029;-76
2021/12/20 08:53:33;;;;;;;209.50;17.55;;;;;;;-1.66;100.00;101351.78;5034524;28;20037;-77
2021/12/20 08:55:58;;;;;;;166.13;16.77;;;;;;;-1.55;100.00;101346.06;5034533;28;20548;-76
2021/12/20 08:58:24;;;;;;;262.35;20.42;;;;;;;-1.64;100.00;101352.72;5034497;28;20033;-76
2021/12/20 09:00:50;;;;;;;157.35;13.65;;;;;;;-1.64;100.00;101360.59;5034485;28;20032;-76
2021/12/20 09:03:15;;;;;;;137.50;12.90;;;;;;;-1.53;100.00;101362.72;5033351;28;20108;-76
2021/12/20 09:05:41;;;;;;;268.05;21.55;;;;;;;-1.64;100.00;101367.56;5034325;28;20043;-76
2021/12/20 09:08:07;;;;;;;106.95;11.93;;;;;;;-1.61;100.00;101372.91;5034646;28;20389;-76
2021/12/20 09:10:33;;;;;;;458.23;34.90;;;;;;;-1.67;100.00;101364.84;5035537;28;20033;-75
2021/12/20 09:12:59;;;;;;;60.83;9.18;;;;;;;-1.67;100.00;101362.22;5036062;28;20022;-76
2021/12/20 09:15:25;;;;;;;166.30;15.38;;;;;;;-1.75;100.00;101368.03;5034084;28;20069;-76
2021/12/20 09:17:52;;;;;;;108.22;9.77;;;;;;;-1.76;100.00;101371.50;5034209;28;20117;-76
2021/12/20 09:20:21;;;;;;;144.70;11.93;;;;;;;-1.64;100.00;101375.41;5033926;28;20554;-76
2021/12/20 09:22:52;;;;;;;17.48;5.55;;;;;;;-1.46;100.00;101372.59;5033947;28;20466;-76
2021/12/20 09:25:22;;;;;;;125.35;11.77;;;;;;;-1.42;100.00;101371.00;5034127;28;20057;-76
2021/12/20 09:27:49;;;;;;;36.90;7.90;;;;;;;-1.35;100.00;101381.75;5033960;28;20603;-77
2021/12/20 09:30:15;;;;;;;98.40;13.73;;;;;;;-1.38;100.00;101378.13;5033463;28;20473;-76
2021/12/20 09:32:40;;;;;;;98.30;13.65;;;;;;;-1.29;100.00;101377.59;5033608;28;20025;-77
2021/12/20 09:35:07;;;;;;;66.75;11.60;;;;;;;-1.23;100.00;101372.53;5033544;28;20116;-76
2021/12/20 09:37:33;;;;;;;61.35;8.88;;;;;;;-1.26;100.00;101375.94;5032434;28;20138;-77
2021/12/20 09:39:59;;;;;;;99.38;10.90;;;;;;;-1.20;100.00;101377.00;5033574;28;20458;-77
2021/12/20 09:42:25;;;;;;;90.78;11.52;;;;;;;-1.17;100.00;101393.75;5033337;28;20071;-76
2021/12/20 09:44:53;;;;;;;191.55;17.00;;;;;;;-1.36;100.00;101394.78;5033363;28;20025;-76
2021/12/20 09:47:18;;;;;;;102.85;11.23;;;;;;;-1.22;100.00;101390.06;5033325;28;20441;-76
2021/12/20 09:49:44;;;;;;;21.00;7.72;;;;;;;-1.13;100.00;101394.75;5037404;28;20025;-76
2021/12/20 09:52:09;;;;;;;80.13;10.50;;;;;;;-1.12;100.00;101391.28;5033320;28;20033;-77
2021/12/20 09:54:34;;;;;;;64.43;10.38;;;;;;;-1.10;100.00;101389.63;5033258;28;20040;-77
2021/12/20 09:57:02;;;;;;;54.65;8.05;;;;;;;-0.98;100.00;101394.41;5033305;28;20393;-76
2021/12/20 09:59:30;;;;;;;88.47;10.95;;;;;;;-1.12;100.00;101391.28;5032727;28;20111;-76
2021/12/20 10:01:57;;;;;;;37.50;7.60;;;;;;;-1.05;100.00;101395.91;5031941;28;20026;-76
2021/12/20 10:04:41;;;;;;;43.30;7.05;;;;;;;-1.08;100.00;101394.94;5069158;22;20045;-82
2021/12/20 10:07:08;;;;;;;;;;;;;;;-1.06;100.00;101396.78;5040005;28;20537;-83
2021/12/20 10:09:46;;;;;;;36.17;7.63;;;;;;;-1.16;100.00;101392.03;5041258;28;19913;-83
2021/12/20 10:12:29;;;;;;;18.70;6.75;;;;;;;-1.13;100.00;101398.25;5034988;28;20056;-83
2021/12/20 10:15:30;;;;;;;39.13;7.22;;;;;;;-1.10;100.00;101387.00;5034885;28;20030;-83
2021/12/20 10:17:59;;;;;;;21.08;7.60;;;;;;;-0.92;100.00;101388.47;5034231;28;20033;-83
2021/12/20 10:20:52;;;;;;;26.20;6.97;;;;;;;-0.94;100.00;101387.53;5041467;28;20025;-83
2021/12/20 10:23:27;;;;;;;161.13;15.68;;;;;;;-1.22;100.00;101394.41;5043787;28;20064;-84
2021/12/20 10:26:13;;;;;;;22.70;6.32;;;;;;;-1.20;100.00;101395.34;5039307;28;20089;-83
2021/12/20 10:28:42;;;;;;;18.33;6.35;;;;;;;-0.95;100.00;101398.84;5036183;28;20025;-83
2021/12/20 10:31:16;;;;;;;24.98;6.85;;;;;;;-0.85;100.00;101394.84;5036268;28;20033;-83
2021/12/20 10:34:00;;;;;;;39.25;7.63;;;;;;;-0.94;100.00;101401.56;5038786;28;20085;-82
2021/12/20 10:36:26;;;;;;;109.93;10.83;;;;;;;-0.87;100.00;101401.75;5045774;28;20036;-83
2021/12/20 10:39:04;;;;;;;31.02;7.07;;;;;;;-0.64;100.00;101393.78;5047700;28;20028;-83
2021/12/20 10:41:37;;;;;;;95.70;12.05;;;;;;;-0.72;100.00;101398.81;5049113;28;20021;-82
2021/12/20 10:44:42;;;;;;;;;;;;;;;;;;;;;
2021/12/20 10:47:57;;;;;;;;;;;;;;;;;;;;;
2021/12/20 10:50:42;;;;;;;15.45;6.63;;;;;;;-0.39;100.00;101399.88;5047852;28;20061;-83
2021/12/20 10:53:25;;;;;;;15.65;7.53;;;;;;;-0.43;100.00;101395.34;5038170;28;20045;-82
2021/12/20 10:56:18;;;;;;;14.43;8.15;;;;;;;-0.30;100.00;101394.94;5036840;28;20025;-84
2021/12/20 10:58:43;;;;;;;33.63;9.38;;;;;;;-0.30;100.00;101386.16;5049636;23;20048;-71
2021/12/20 11:04:41;;;;;;;27.98;10.63;;;;;;;-0.10;100.00;101388.56;5033309;28;20405;-72
2021/12/20 11:09:39;;;;;;;40.75;8.43;;;;;;;-0.35;100.00;101386.03;5033064;28;20029;-72
2021/12/20 11:12:06;;;;;;;15.60;7.68;;;;;;;-0.43;100.00;101392.72;5034327;28;20030;-74
2021/12/20 11:14:46;;;;;;;15.88;7.57;;;;;;;-0.34;100.00;101387.81;5036071;28;20036;-72
2021/12/20 11:17:14;;;;;;;12.02;7.25;;;;;;;-0.15;100.00;101388.38;5036055;28;20021;-72
2021/12/20 11:19:42;;;;;;;14.85;7.57;;;;;;;-0.18;100.00;101386.56;5036136;28;20029;-72
2021/12/20 11:22:19;;;;;;;16.85;7.25;;;;;;;-0.21;100.00;101394.34;5036267;28;20060;-72
2021/12/20 11:25:03;;;;;;;25.25;8.23;;;;;;;-0.21;100.00;101382.97;5035795;28;20096;-74
2021/12/20 11:27:53;;;;;;;12.02;6.47;;;;;;;-0.13;100.00;101382.34;5035886;28;20393;-74
2021/12/20 11:30:22;;;;;;;17.70;6.45;;;;;;;-0.22;100.00;101376.81;5035779;28;20048;-73
2021/12/20 11:32:49;;;;;;;18.63;7.25;;;;;;;-0.10;100.00;101376.31;5034390;28;20026;-73
2021/12/20 11:35:16;;;;;;;15.55;7.72;;;;;;;-0.25;100.00;101376.72;5035915;28;20026;-75
2021/12/20 11:37:42;;;;;;;17.17;7.53;;;;;;;-0.25;100.00;101388.09;5034327;28;20393;-73
2021/12/20 11:40:09;;;;;;;18.02;9.05;;;;;;;0.00;100.00;101388.03;5035557;28;20025;-73
2021/12/20 11:42:35;;;;;;;21.50;9.52;;;;;;;0.08;100.00;101386.50;5035554;28;20033;-72